createdAt,value
2022-11-14T00:03:14.146Z,101354.69
2022-11-14T00:06:36.981Z,101334.25
2022-11-14T00:10:00.006Z,101330.56
2022-11-14T00:13:23.185Z,101325.66
2022-11-14T00:16:46.882Z,101328.59
2022-11-14T00:20:12.109Z,101308.91
2022-11-14T00:23:34.929Z,101338.97
2022-11-14T00:26:57.598Z,101327.28
2022-11-14T00:30:20.642Z,101320.84
2022-11-14T00:33:43.679Z,101319.41
2022-11-14T00:37:06.405Z,101289.34
2022-11-14T00:40:29.450Z,101315.03
2022-11-14T00:43:52.504Z,101297.78
2022-11-14T00:47:15.639Z,101292.16
2022-11-14T00:50:39.101Z,101292.56
2022-11-14T00:54:02.047Z,101299.91
2022-11-14T00:57:24.671Z,101288.78
2022-11-14T01:00:47.895Z,101280.84
2022-11-14T01:04:10.692Z,101272.47
2022-11-14T01:07:34.235Z,101281.56
2022-11-14T01:10:57.012Z,101266.50
2022-11-14T01:14:19.745Z,101271.56
2022-11-14T01:17:42.655Z,101263.94
2022-11-14T01:21:10.636Z,101267.66
2022-11-14T01:24:34.863Z,101271.91
2022-11-14T01:27:57.630Z,101252.97
2022-11-14T01:31:23.440Z,101198.19
2022-11-14T01:34:47.510Z,101247.59
2022-11-14T01:38:15.602Z,101255.13
2022-11-14T01:41:38.717Z,101237.53
2022-11-14T01:45:01.912Z,101251.44
2022-11-14T01:48:28.430Z,101244.91
2022-11-14T01:52:04.795Z,101226.13
2022-11-14T01:55:28.270Z,101232.28
2022-11-14T01:58:58.016Z,101220.72
2022-11-14T02:02:23.336Z,101202.66
2022-11-14T02:05:49.644Z,101205.91
2022-11-14T02:09:12.589Z,101206.00
2022-11-14T02:12:36.589Z,101186.84
2022-11-14T02:15:59.795Z,101175.94
2022-11-14T02:19:22.557Z,101176.16
2022-11-14T02:22:45.333Z,101169.28
2022-11-14T02:26:08.472Z,101158.66
2022-11-14T02:29:34.074Z,101163.97
2022-11-14T02:33:10.435Z,101156.03
2022-11-14T02:36:34.106Z,101157.31
2022-11-14T02:39:57.294Z,101143.88
2022-11-14T02:43:20.087Z,101128.78
2022-11-14T02:46:43.151Z,101133.75
2022-11-14T02:50:06.375Z,101129.38
2022-11-14T02:53:29.661Z,101125.72
2022-11-14T02:56:52.885Z,101123.75
2022-11-14T03:00:16.110Z,101110.78
2022-11-14T03:03:39.339Z,101114.72
2022-11-14T03:07:02.641Z,101111.09
2022-11-14T03:10:26.674Z,101098.88
2022-11-14T03:13:49.929Z,101109.31
2022-11-14T03:17:13.605Z,101093.16
2022-11-14T03:20:36.856Z,101092.34
2022-11-14T03:23:59.757Z,101081.78
2022-11-14T03:27:22.592Z,101070.31
2022-11-14T03:30:45.395Z,101071.53
2022-11-14T03:34:08.316Z,101062.22
2022-11-14T03:37:31.221Z,101053.44
2022-11-14T03:40:54.784Z,101059.75
2022-11-14T03:44:17.921Z,101030.09
2022-11-14T03:47:41.105Z,101041.00
2022-11-14T03:51:04.047Z,101046.50
2022-11-14T03:54:28.041Z,101035.78
2022-11-14T03:57:51.176Z,101018.16
2022-11-14T04:01:14.394Z,101026.50
2022-11-14T04:04:37.498Z,101024.66
2022-11-14T04:08:00.502Z,101023.03
2022-11-14T04:11:23.693Z,101025.75
2022-11-14T04:14:46.569Z,101010.59
2022-11-14T04:18:09.836Z,101003.88
2022-11-14T04:21:32.720Z,101008.56
2022-11-14T04:24:55.952Z,100994.63
2022-11-14T04:28:18.990Z,101000.56
2022-11-14T04:31:41.620Z,100985.81
2022-11-14T04:35:05.162Z,100988.34
2022-11-14T04:38:28.542Z,100983.22
2022-11-14T04:41:51.966Z,100959.78
2022-11-14T04:45:15.118Z,100972.94
2022-11-14T04:48:37.666Z,100983.06
2022-11-14T04:52:00.502Z,100974.59
2022-11-14T04:55:23.098Z,100971.31
2022-11-14T04:58:46.013Z,100967.09
2022-11-14T05:02:10.346Z,100964.00
2022-11-14T05:05:36.944Z,100947.69
2022-11-14T05:09:03.569Z,100968.25
2022-11-14T05:12:26.105Z,100952.06
2022-11-14T05:15:49.358Z,100950.63
2022-11-14T05:19:12.341Z,100951.28
2022-11-14T05:22:35.219Z,100910.75
2022-11-14T05:26:07.998Z,100927.22
2022-11-14T05:29:30.764Z,100939.63
2022-11-14T05:32:54.427Z,100937.19
2022-11-14T05:36:19.096Z,100933.41
2022-11-14T05:39:41.812Z,100921.94
2022-11-14T05:43:04.467Z,100924.09
2022-11-14T05:46:27.264Z,100920.47
2022-11-14T05:49:50.428Z,100922.25
2022-11-14T05:53:13.343Z,100914.44
2022-11-14T05:56:36.228Z,100912.38
2022-11-14T06:00:00.645Z,100890.88
2022-11-14T06:03:23.503Z,100907.34
2022-11-14T06:06:46.229Z,100917.03
2022-11-14T06:10:09.350Z,100917.91
2022-11-14T06:13:33.323Z,100919.13
2022-11-14T06:16:56.304Z,100903.63
2022-11-14T06:20:19.283Z,100912.16
2022-11-14T06:23:43.235Z,100908.31
2022-11-14T06:27:06.239Z,100902.97
2022-11-14T06:30:29.503Z,100903.28
2022-11-14T06:33:53.065Z,100893.06
2022-11-14T06:37:15.866Z,100892.16
2022-11-14T06:40:38.612Z,100894.25
2022-11-14T06:44:01.763Z,100877.59
2022-11-14T06:47:24.782Z,100893.09
2022-11-14T06:50:54.242Z,100896.44
2022-11-14T06:54:17.251Z,100892.66
2022-11-14T06:57:40.792Z,100888.50
2022-11-14T07:01:09.618Z,100900.56
2022-11-14T07:04:32.303Z,100871.25
2022-11-14T07:07:55.059Z,100896.94
2022-11-14T07:11:28.108Z,100909.28
2022-11-14T07:14:51.143Z,100890.22
2022-11-14T07:18:14.542Z,100882.19
2022-11-14T07:21:38.003Z,100870.84
2022-11-14T07:25:00.707Z,100877.50
2022-11-14T07:28:23.847Z,100830.88
2022-11-14T07:31:46.803Z,100867.00
2022-11-14T07:35:09.906Z,100865.41
2022-11-14T07:38:34.107Z,100856.94
2022-11-14T07:41:57.150Z,100873.16
2022-11-14T07:45:20.974Z,100871.22
2022-11-14T07:48:44.599Z,100856.09
2022-11-14T07:52:08.118Z,100842.75
2022-11-14T07:55:31.245Z,100859.16
2022-11-14T07:58:54.259Z,100864.56
2022-11-14T08:02:17.128Z,100866.16
2022-11-14T08:05:39.873Z,100872.06
2022-11-14T08:09:03.128Z,100850.97
2022-11-14T08:12:25.941Z,100861.34
2022-11-14T08:15:48.878Z,100828.38
2022-11-14T08:19:11.848Z,100870.53
2022-11-14T08:22:34.953Z,100851.59
2022-11-14T08:26:00.626Z,100860.50
2022-11-14T08:29:23.650Z,100859.31
2022-11-14T08:32:47.053Z,100866.38
2022-11-14T08:36:12.054Z,100841.66
2022-11-14T08:39:35.845Z,100840.19
2022-11-14T08:43:03.121Z,100858.19
2022-11-14T08:46:26.110Z,100855.47
2022-11-14T08:49:48.910Z,100863.13
2022-11-14T08:53:11.787Z,100869.72
2022-11-14T08:56:34.596Z,100858.34
2022-11-14T08:59:57.569Z,100859.06
2022-11-14T09:03:20.651Z,100848.38
2022-11-14T09:06:43.241Z,100866.94
2022-11-14T09:10:07.106Z,100852.69
2022-11-14T09:13:30.627Z,100871.19
2022-11-14T09:16:53.745Z,100865.22
2022-11-14T09:20:17.140Z,100858.88
2022-11-14T09:23:40.526Z,100865.47
2022-11-14T09:27:03.195Z,100850.94
2022-11-14T09:30:25.699Z,100854.13
2022-11-14T09:33:48.053Z,100854.97
2022-11-14T09:37:10.991Z,100853.38
2022-11-14T09:40:46.621Z,100841.97
2022-11-14T09:44:23.805Z,100842.56
2022-11-14T09:48:06.173Z,100854.38
2022-11-14T09:51:40.142Z,100871.25
2022-11-14T09:55:14.065Z,100873.00
2022-11-14T09:58:37.281Z,100869.72
2022-11-14T10:02:02.578Z,100871.38
2022-11-14T10:05:53.286Z,100876.78
2022-11-14T10:09:53.123Z,100875.94
2022-11-14T10:13:25.282Z,100881.34
2022-11-14T10:17:00.065Z,100871.38
2022-11-14T10:20:30.065Z,100871.78
2022-11-14T10:24:25.052Z,100881.47
2022-11-14T10:28:04.876Z,100888.72
2022-11-14T10:32:09.378Z,100888.47
2022-11-14T10:36:00.206Z,100891.00
2022-11-14T10:39:52.297Z,100883.56
2022-11-14T10:43:34.754Z,100874.44
2022-11-14T10:47:04.471Z,100854.34
2022-11-14T10:50:37.684Z,100863.50
2022-11-14T10:54:08.051Z,100869.75
2022-11-14T10:57:32.084Z,100860.56
2022-11-14T11:00:55.066Z,100852.09
2022-11-14T11:04:34.954Z,100865.94
2022-11-14T11:12:05.130Z,100868.25
2022-11-14T11:15:41.927Z,100873.88
2022-11-14T11:19:28.696Z,100867.19
2022-11-14T11:23:03.598Z,100877.31
2022-11-14T11:26:29.186Z,100876.00
2022-11-14T11:30:21.497Z,100858.84
2022-11-14T11:33:44.502Z,100850.72
2022-11-14T11:37:26.363Z,100861.16
2022-11-14T11:40:52.550Z,100869.22
2022-11-14T11:44:19.997Z,100856.91
2022-11-14T11:47:44.385Z,100843.75
2022-11-14T11:51:13.876Z,100830.03
2022-11-14T11:55:03.867Z,100863.34
2022-11-14T11:58:45.514Z,100866.56
2022-11-14T12:02:28.846Z,100855.31
2022-11-14T12:06:17.931Z,100869.91
2022-11-14T12:10:09.386Z,100868.09
2022-11-14T12:13:51.773Z,100850.13
2022-11-14T12:17:29.495Z,100855.84
2022-11-14T12:21:16.591Z,100855.69
2022-11-14T12:24:55.045Z,100856.34
2022-11-14T12:28:23.999Z,100855.00
2022-11-14T12:31:48.416Z,100845.69
2022-11-14T12:35:23.239Z,100837.66
2022-11-14T12:38:53.757Z,100855.47
2022-11-14T12:42:22.975Z,100858.50
2022-11-14T12:45:57.463Z,100853.47
2022-11-14T12:49:56.738Z,100851.75
2022-11-14T12:53:37.095Z,100861.25
2022-11-14T12:57:04.819Z,100848.66
2022-11-14T13:00:29.979Z,100847.75
2022-11-14T13:04:17.531Z,100863.81
2022-11-14T13:07:49.187Z,100857.53
2022-11-14T13:11:51.585Z,100855.56
2022-11-14T13:15:52.125Z,100858.41
2022-11-14T13:19:41.254Z,100859.28
2022-11-14T13:23:04.140Z,100843.03
2022-11-14T13:26:26.868Z,100852.03
2022-11-14T13:29:50.450Z,100832.88
2022-11-14T13:33:53.674Z,100845.72
2022-11-14T13:37:16.334Z,100845.69
2022-11-14T13:41:24.214Z,100837.38
2022-11-14T13:44:49.944Z,100703.09
2022-11-14T13:48:24.503Z,100827.00
2022-11-14T13:51:48.941Z,100810.09
2022-11-14T13:55:39.915Z,100798.69
2022-11-14T13:59:40.969Z,100807.59
2022-11-14T14:03:38.130Z,100820.22
2022-11-14T14:07:33.885Z,100805.56
2022-11-14T14:11:06.936Z,100809.06
2022-11-14T14:14:55.621Z,100803.75
2022-11-14T14:18:53.362Z,100815.47
2022-11-14T14:22:40.340Z,100809.25
2022-11-14T14:26:33.686Z,100813.75
2022-11-14T14:30:14.099Z,100803.50
2022-11-14T14:33:48.331Z,100793.59
2022-11-14T14:37:32.668Z,100795.88
2022-11-14T14:40:57.104Z,100795.50
2022-11-14T14:44:40.176Z,100797.41
2022-11-14T14:48:13.971Z,100800.19
2022-11-14T14:51:39.763Z,100799.00
2022-11-14T14:55:03.876Z,100806.75
2022-11-14T14:58:34.014Z,100808.59
2022-11-14T15:01:58.521Z,100795.69
2022-11-14T15:05:29.645Z,100779.06
2022-11-14T15:08:53.051Z,100789.31
2022-11-14T15:12:16.448Z,100796.19
2022-11-14T15:15:40.550Z,100789.03
2022-11-14T15:19:03.914Z,100790.50
2022-11-14T15:22:30.168Z,100788.44
2022-11-14T15:26:04.368Z,100781.50
2022-11-14T15:29:29.160Z,100790.31
2022-11-14T15:32:58.007Z,100772.81
2022-11-14T15:36:21.142Z,100781.00
2022-11-14T15:39:46.215Z,100783.22
2022-11-14T15:43:45.968Z,100775.84
2022-11-14T15:47:32.697Z,100757.44
2022-11-14T15:50:55.351Z,100777.19
2022-11-14T15:54:27.555Z,100760.94
2022-11-14T15:58:00.978Z,100754.06
2022-11-14T16:01:33.711Z,100732.72
2022-11-14T16:04:59.201Z,100772.97
2022-11-14T16:08:22.066Z,100752.84
2022-11-14T16:11:47.696Z,100768.44
2022-11-14T16:15:12.685Z,100772.81
2022-11-14T16:18:35.461Z,100759.84
2022-11-14T16:22:05.139Z,100766.09
2022-11-14T16:25:30.427Z,100768.66
2022-11-14T16:28:53.699Z,100759.47
2022-11-14T16:32:18.175Z,100761.31
2022-11-14T16:35:40.913Z,100759.13
2022-11-14T16:39:11.387Z,100773.50
2022-11-14T16:42:35.161Z,100758.13
2022-11-14T16:45:58.103Z,100771.06
2022-11-14T16:49:21.412Z,100752.06
2022-11-14T16:52:44.438Z,100770.81
2022-11-14T16:56:07.691Z,100755.06
2022-11-14T16:59:30.787Z,100773.84
2022-11-14T17:02:54.278Z,100782.69
2022-11-14T17:06:17.379Z,100765.94
2022-11-14T17:09:40.656Z,100766.84
2022-11-14T17:13:05.439Z,100772.63
2022-11-14T17:16:29.847Z,100741.97
2022-11-14T17:19:52.710Z,100759.88
2022-11-14T17:23:15.779Z,100716.25
2022-11-14T17:26:38.842Z,100758.38
2022-11-14T17:30:03.013Z,100761.59
2022-11-14T17:33:25.939Z,100751.59
2022-11-14T17:36:48.878Z,100751.16
2022-11-14T17:40:15.451Z,100750.66
2022-11-14T17:43:40.199Z,100756.94
2022-11-14T17:47:03.417Z,100761.91
2022-11-14T17:50:26.345Z,100756.06
2022-11-14T17:53:49.210Z,100751.28
2022-11-14T17:57:14.085Z,100744.22
2022-11-14T18:00:37.674Z,100758.16
2022-11-14T18:04:05.504Z,100763.03
2022-11-14T18:07:31.533Z,100739.56
2022-11-14T18:10:55.158Z,100746.84
2022-11-14T18:14:18.467Z,100741.06
2022-11-14T18:17:41.507Z,100759.00
2022-11-14T18:21:23.587Z,100751.75
2022-11-14T18:24:48.259Z,100753.41
2022-11-14T18:28:11.243Z,100764.56
2022-11-14T18:31:33.790Z,100761.75
2022-11-14T18:34:57.535Z,100745.94
2022-11-14T18:38:19.702Z,100723.97
2022-11-14T18:41:42.903Z,100719.00
2022-11-14T18:45:05.755Z,100759.69
2022-11-14T18:48:28.501Z,100746.06
2022-11-14T18:51:51.421Z,100745.44
2022-11-14T18:55:15.040Z,100761.75
2022-11-14T18:58:40.587Z,100751.59
2022-11-14T19:02:03.148Z,100744.91
2022-11-14T19:05:25.593Z,100750.16
2022-11-14T19:08:48.574Z,100758.22
2022-11-14T19:12:22.715Z,100750.41
2022-11-14T19:15:45.824Z,100762.59
2022-11-14T19:19:09.760Z,100748.56
2022-11-14T19:22:32.819Z,100743.31
2022-11-14T19:26:02.968Z,100763.22
2022-11-14T19:29:26.615Z,100755.22
2022-11-14T19:32:49.594Z,100767.91
2022-11-14T19:36:27.867Z,100773.81
2022-11-14T19:40:00.944Z,100729.34
2022-11-14T19:43:26.162Z,100761.97
2022-11-14T19:46:48.993Z,100753.03
2022-11-14T19:50:12.262Z,100753.19
2022-11-14T19:53:36.588Z,100766.28
2022-11-14T19:56:59.861Z,100783.19
2022-11-14T20:00:25.812Z,100780.41
2022-11-14T20:04:00.657Z,100784.28
2022-11-14T20:07:24.365Z,100779.50
2022-11-14T20:11:04.899Z,100774.16
2022-11-14T20:14:27.733Z,100784.09
2022-11-14T20:17:50.178Z,100780.03
2022-11-14T20:21:15.124Z,100786.56
2022-11-14T20:24:38.225Z,100759.25
2022-11-14T20:28:01.022Z,100771.88
2022-11-14T20:31:29.686Z,100781.59
2022-11-14T20:34:52.241Z,100763.00
2022-11-14T20:38:15.437Z,100758.72
2022-11-14T20:41:38.489Z,100773.34
2022-11-14T20:45:01.659Z,100768.84
2022-11-14T20:48:25.363Z,100755.63
2022-11-14T20:51:51.089Z,100768.56
2022-11-14T20:55:13.754Z,100774.31
2022-11-14T20:58:36.543Z,100767.31
2022-11-14T21:01:59.157Z,100765.63
2022-11-14T21:05:21.929Z,100751.63
2022-11-14T21:08:45.198Z,100772.47
2022-11-14T21:12:08.560Z,100775.06
2022-11-14T21:15:31.371Z,100755.00
2022-11-14T21:18:55.507Z,100768.13
2022-11-14T21:22:18.373Z,100775.91
2022-11-14T21:25:42.035Z,100763.41
2022-11-14T21:29:11.183Z,100777.78
2022-11-14T21:32:37.101Z,100774.91
2022-11-14T21:36:11.275Z,100786.44
2022-11-14T21:39:44.227Z,100770.41
2022-11-14T21:43:07.397Z,100762.97
2022-11-14T21:46:30.611Z,100773.25
2022-11-14T21:50:00.960Z,100783.09
2022-11-14T21:53:24.261Z,100768.22
2022-11-14T21:56:47.163Z,100778.91
2022-11-14T22:00:11.211Z,100775.09
2022-11-14T22:03:52.432Z,100780.78
2022-11-14T22:07:15.243Z,100743.63
2022-11-14T22:10:37.792Z,100776.88
2022-11-14T22:14:00.747Z,100791.81
2022-11-14T22:17:23.391Z,100794.91
2022-11-14T22:20:45.866Z,100780.09
2022-11-14T22:24:08.491Z,100788.97
2022-11-14T22:27:31.412Z,100802.91
2022-11-14T22:31:24.356Z,100797.63
2022-11-14T22:34:47.216Z,100791.84
2022-11-14T22:38:09.660Z,100791.06
2022-11-14T22:41:34.267Z,100796.78
2022-11-14T22:44:57.253Z,100781.09
2022-11-14T22:48:20.799Z,100828.00
2022-11-14T22:51:43.921Z,100786.56
2022-11-14T22:55:06.888Z,100827.41
2022-11-14T22:58:33.389Z,100821.50
2022-11-14T23:01:57.010Z,100826.69
2022-11-14T23:05:19.821Z,100784.88
2022-11-14T23:08:43.567Z,100833.78
2022-11-14T23:12:08.091Z,100820.53
2022-11-14T23:15:31.331Z,100789.22
2022-11-14T23:18:58.563Z,100782.09
2022-11-14T23:22:21.219Z,100824.44
2022-11-14T23:25:44.341Z,100815.94
2022-11-14T23:29:07.250Z,100825.38
2022-11-14T23:32:30.640Z,100833.78
2022-11-14T23:35:53.355Z,100825.06
2022-11-14T23:39:16.315Z,100830.31
2022-11-14T23:42:39.074Z,100818.97
2022-11-14T23:46:01.800Z,100821.78
2022-11-14T23:49:24.320Z,100822.22
2022-11-14T23:52:47.906Z,100818.56
2022-11-14T23:56:14.038Z,100822.97
2022-11-14T23:59:37.428Z,100815.28
